Time;durP1;ratioP1;P1;durP2;ratioP2;P2;SDS_P1;SDS_P2;PMS_P1;PMS_P2;Temp;Humidity;BMP_temperature;BMP_pressure;BME280_temperature;BME280_humidity;BME280_pressure;Samples;Min_cycle;Max_cycle;Signal;HPM_P1;HPM_P2
2021/11/24 00:02:27;;;;;;;1.77;1.67;;;5.80;99.90;;;;;;5099800;28;20255;-80
2021/11/24 00:04:54;;;;;;;5.03;2.80;;;5.80;99.90;;;;;;5099282;28;20193;-81
2021/11/24 00:07:21;;;;;;;0.40;0.40;;;5.80;99.90;;;;;;5100367;28;20276;-80
2021/11/24 00:09:48;;;;;;;11.52;2.97;;;5.80;99.90;;;;;;5103253;28;20189;-81
2021/11/24 00:12:15;;;;;;;5.80;2.78;;;5.80;99.90;;;;;;5106842;28;20253;-80
2021/11/24 00:14:42;;;;;;;1.08;1.08;;;5.80;99.90;;;;;;5106223;28;20225;-79
2021/11/24 00:17:09;;;;;;;5.85;3.60;;;5.80;99.90;;;;;;5105672;28;20299;-80
2021/11/24 00:19:37;;;;;;;0.55;0.55;;;5.80;99.90;;;;;;5101775;28;20271;-80
2021/11/24 00:22:04;;;;;;;13.80;3.90;;;5.80;99.90;;;;;;5101356;28;20209;-80
2021/11/24 00:24:31;;;;;;;0.60;0.60;;;5.80;99.90;;;;;;5099400;28;20709;-78
2021/11/24 00:26:58;;;;;;;1.45;1.45;;;5.80;99.90;;;;;;5099739;28;20197;-80
2021/11/24 00:29:25;;;;;;;25.80;4.32;;;5.80;99.90;;;;;;5098179;28;20197;-80
2021/11/24 00:31:52;;;;;;;0.40;0.40;;;5.80;99.90;;;;;;5098804;28;20272;-80
2021/11/24 00:34:19;;;;;;;1.00;1.00;;;5.80;99.90;;;;;;5101143;27;20228;-80
2021/11/24 00:36:47;;;;;;;8.18;3.47;;;5.80;99.90;;;;;;5105015;27;20260;-81
2021/11/24 00:39:13;;;;;;;1.10;1.10;;;5.80;99.90;;;;;;5121309;27;20196;-79
2021/11/24 00:41:41;;;;;;;0.55;0.55;;;5.90;99.90;;;;;;5099089;28;20189;-75
2021/11/24 00:44:07;;;;;;;1.95;1.85;;;5.90;99.90;;;;;;5098697;28;20213;-80
2021/11/24 00:46:34;;;;;;;0.40;0.40;;;5.90;99.90;;;;;;5099419;28;20196;-77
2021/11/24 00:49:01;;;;;;;2.15;1.77;;;5.90;99.90;;;;;;5097839;28;20204;-80
2021/11/24 00:51:28;;;;;;;0.40;0.40;;;5.90;99.90;;;;;;5098904;28;20200;-80
2021/11/24 00:53:56;;;;;;;0.50;0.40;;;5.90;99.90;;;;;;5098082;28;20219;-80
2021/11/24 00:56:23;;;;;;;1.17;1.15;;;5.90;99.90;;;;;;5098337;28;20193;-79
2021/11/24 00:58:50;;;;;;;0.40;0.40;;;5.90;99.90;;;;;;5098948;28;20201;-80
2021/11/24 01:01:17;;;;;;;3.80;3.50;;;5.90;99.90;;;;;;5098266;28;20198;-80
2021/11/24 01:03:43;;;;;;;4.00;2.33;;;6.00;99.90;;;;;;5098370;28;20225;-80
2021/11/24 01:06:10;;;;;;;1.35;1.25;;;5.90;99.90;;;;;;5098441;28;20199;-80
2021/11/24 01:08:37;;;;;;;0.40;0.30;;;5.90;99.90;;;;;;5098318;28;20198;-75
2021/11/24 01:11:06;;;;;;;0.40;0.30;;;5.90;99.90;;;;;;5097461;28;20205;-81
2021/11/24 01:13:33;;;;;;;0.40;0.30;;;5.90;99.90;;;;;;5098375;28;20213;-80
2021/11/24 01:15:59;;;;;;;0.40;0.40;;;5.90;99.90;;;;;;5099402;28;20190;-79
2021/11/24 01:18:26;;;;;;;0.40;0.30;;;6.00;99.90;;;;;;5099277;28;20665;-81
2021/11/24 01:20:53;;;;;;;1.30;1.30;;;6.00;99.90;;;;;;5098097;28;20198;-80
2021/11/24 01:23:20;;;;;;;0.40;0.30;;;6.10;99.90;;;;;;5097496;28;20598;-80
2021/11/24 01:25:47;;;;;;;0.68;0.45;;;6.10;99.90;;;;;;5098698;28;20187;-80
2021/11/24 01:28:15;;;;;;;4.30;1.05;;;6.10;99.90;;;;;;5098148;28;20190;-80
2021/11/24 01:30:42;;;;;;;4.70;2.25;;;6.10;99.90;;;;;;5096657;28;20201;-79
2021/11/24 01:33:09;;;;;;;0.40;0.30;;;6.20;99.90;;;;;;5098387;28;20217;-80
2021/11/24 01:35:36;;;;;;;1.02;1.02;;;6.10;99.90;;;;;;5113925;28;20205;-80
2021/11/24 01:38:02;;;;;;;8.02;1.50;;;6.20;99.90;;;;;;5112327;28;20296;-79
2021/11/24 01:40:29;;;;;;;0.40;0.40;;;6.20;99.90;;;;;;5097127;28;20201;-80
2021/11/24 01:42:56;;;;;;;2.30;2.15;;;6.20;99.90;;;;;;5096885;28;20217;-80
2021/11/24 01:45:24;;;;;;;0.40;0.35;;;6.10;99.90;;;;;;5097098;28;20206;-79
2021/11/24 01:47:52;;;;;;;0.40;0.40;;;6.10;99.90;;;;;;5096562;28;20196;-80
2021/11/24 01:50:20;;;;;;;0.50;0.40;;;6.10;99.90;;;;;;5096972;28;20561;-80
2021/11/24 01:52:47;;;;;;;2.35;2.25;;;6.10;99.90;;;;;;5096876;28;20195;-80
2021/11/24 01:55:16;;;;;;;2.40;1.63;;;6.10;99.90;;;;;;5096954;27;20197;-80
2021/11/24 01:57:47;;;;;;;1.63;1.52;;;6.10;99.90;;;;;;5096780;28;20570;-80
2021/11/24 02:00:16;;;;;;;0.40;0.40;;;6.10;99.90;;;;;;5096164;28;20200;-80
2021/11/24 02:02:44;;;;;;;1.25;0.82;;;6.10;99.90;;;;;;5096987;28;20215;-80
2021/11/24 02:05:11;;;;;;;0.73;0.73;;;6.10;99.90;;;;;;5095467;28;20193;-80
2021/11/24 02:07:38;;;;;;;0.45;0.45;;;6.10;99.90;;;;;;5096845;28;20202;-79
2021/11/24 02:10:06;;;;;;;0.40;0.30;;;6.10;99.90;;;;;;5096652;28;20554;-78
2021/11/24 02:12:33;;;;;;;0.40;0.40;;;6.10;99.90;;;;;;5097175;28;20186;-80
2021/11/24 02:15:00;;;;;;;0.40;0.40;;;6.10;99.90;;;;;;5096655;28;20190;-79
2021/11/24 02:17:27;;;;;;;0.50;0.40;;;6.10;99.90;;;;;;5096948;28;20197;-79
2021/11/24 02:19:55;;;;;;;0.40;0.40;;;6.10;99.90;;;;;;5095599;28;20199;-80
2021/11/24 02:22:23;;;;;;;0.60;0.60;;;6.20;99.90;;;;;;5096223;28;20205;-80
2021/11/24 02:24:50;;;;;;;0.57;0.57;;;6.20;99.90;;;;;;5095327;28;20206;-80
2021/11/24 02:27:17;;;;;;;1.85;1.75;;;6.20;99.90;;;;;;5096610;28;20223;-80
2021/11/24 02:29:45;;;;;;;0.40;0.40;;;6.20;99.90;;;;;;5094697;28;20197;-79
2021/11/24 02:32:12;;;;;;;1.33;1.33;;;6.20;99.90;;;;;;5095428;28;20681;-80
2021/11/24 02:34:39;;;;;;;0.40;0.30;;;6.20;99.90;;;;;;5103295;28;20224;-80
2021/11/24 02:37:06;;;;;;;1.45;1.35;;;6.20;99.90;;;;;;5109008;28;20267;-80
2021/11/24 02:39:34;;;;;;;0.40;0.40;;;6.10;99.90;;;;;;5095474;28;20562;-78
2021/11/24 02:42:01;;;;;;;0.50;0.50;;;6.10;99.90;;;;;;5096067;28;20194;-80
2021/11/24 02:44:30;;;;;;;0.40;0.30;;;6.20;99.90;;;;;;5095312;28;20213;-79
2021/11/24 02:47:07;;;;;;;0.50;0.47;;;6.20;99.90;;;;;;5095832;28;20648;-79
2021/11/24 02:49:34;;;;;;;2.15;2.05;;;6.20;99.90;;;;;;5095771;28;20197;-80
2021/11/24 02:52:01;;;;;;;0.40;0.40;;;6.20;99.90;;;;;;5095817;28;20193;-79
2021/11/24 02:54:28;;;;;;;1.30;1.25;;;6.20;99.90;;;;;;5094662;28;20256;-79
2021/11/24 02:56:58;;;;;;;0.40;0.40;;;6.30;99.90;;;;;;5095176;28;20193;-80
2021/11/24 02:59:25;;;;;;;0.40;0.40;;;6.30;99.90;;;;;;5095549;28;20197;-80
2021/11/24 03:01:52;;;;;;;0.50;0.50;;;6.30;99.90;;;;;;5096354;28;20201;-80
2021/11/24 03:04:20;;;;;;;0.40;0.40;;;6.30;99.90;;;;;;5095924;28;20216;-81
2021/11/24 03:06:47;;;;;;;0.43;0.40;;;6.30;99.90;;;;;;5099602;28;20213;-81
2021/11/24 03:09:14;;;;;;;2.65;2.55;;;6.30;99.90;;;;;;5100743;28;20197;-79
2021/11/24 03:11:40;;;;;;;0.40;0.40;;;6.30;99.90;;;;;;5096932;28;20194;-78
2021/11/24 03:14:09;;;;;;;0.50;0.50;;;6.30;99.90;;;;;;5095421;28;20734;-78
2021/11/24 03:16:35;;;;;;;0.40;0.40;;;6.30;99.90;;;;;;5093538;28;20201;-75
2021/11/24 03:19:02;;;;;;;0.40;0.40;;;6.30;99.90;;;;;;5093877;28;20189;-79
2021/11/24 03:21:29;;;;;;;2.28;2.17;;;6.30;99.90;;;;;;5093670;28;20201;-78
2021/11/24 03:23:56;;;;;;;7.93;0.98;;;6.30;99.90;;;;;;5094975;28;20582;-78
2021/11/24 03:26:22;;;;;;;1.65;1.40;;;6.30;99.90;;;;;;5094969;28;20219;-79
2021/11/24 03:28:49;;;;;;;0.40;0.30;;;6.20;99.90;;;;;;5094841;28;20679;-78
2021/11/24 03:31:17;;;;;;;0.50;0.40;;;6.20;99.90;;;;;;5095293;28;20685;-78
2021/11/24 03:33:44;;;;;;;0.40;0.40;;;6.20;99.90;;;;;;5096622;28;20218;-78
2021/11/24 03:36:11;;;;;;;0.40;0.40;;;6.20;99.90;;;;;;5105814;28;20193;-79
2021/11/24 03:38:38;;;;;;;0.40;0.40;;;6.20;99.90;;;;;;5095589;28;20193;-76
2021/11/24 03:41:05;;;;;;;0.40;0.30;;;6.20;99.90;;;;;;5091630;28;20189;-78
2021/11/24 03:43:32;;;;;;;0.40;0.40;;;6.20;99.90;;;;;;5091797;28;20213;-76
2021/11/24 03:45:59;;;;;;;0.50;0.40;;;6.30;99.90;;;;;;5091768;28;20193;-78
2021/11/24 03:48:27;;;;;;;0.70;0.70;;;6.30;99.90;;;;;;5092274;28;20200;-78
2021/11/24 03:50:54;;;;;;;0.40;0.40;;;6.30;99.90;;;;;;5091381;28;20561;-79
2021/11/24 03:53:21;;;;;;;0.40;0.40;;;6.30;99.90;;;;;;5091631;28;20258;-77
2021/11/24 03:55:48;;;;;;;1.77;1.67;;;6.30;99.90;;;;;;5091900;28;20190;-78
2021/11/24 03:58:14;;;;;;;0.40;0.30;;;6.30;99.90;;;;;;5092092;28;20562;-80
2021/11/24 04:00:41;;;;;;;0.40;0.40;;;6.30;99.90;;;;;;5091087;28;20646;-74
2021/11/24 04:03:08;;;;;;;0.43;0.38;;;6.40;99.90;;;;;;5091337;28;20226;-79
2021/11/24 04:05:36;;;;;;;0.40;0.40;;;6.40;99.90;;;;;;5091602;28;20668;-77
2021/11/24 04:08:03;;;;;;;0.45;0.40;;;6.40;99.90;;;;;;5091881;28;20196;-78
2021/11/24 04:10:30;;;;;;;0.40;0.40;;;6.40;99.90;;;;;;5091849;28;20211;-79
2021/11/24 04:12:57;;;;;;;0.50;0.40;;;6.40;99.90;;;;;;5091645;28;20210;-79
2021/11/24 04:15:24;;;;;;;0.40;0.40;;;6.40;99.90;;;;;;5093772;28;20186;-79
2021/11/24 04:17:51;;;;;;;0.40;0.30;;;6.40;99.90;;;;;;5093522;28;20195;-80
2021/11/24 04:20:20;;;;;;;0.40;0.30;;;6.40;99.90;;;;;;5095235;28;20197;-80
2021/11/24 04:22:48;;;;;;;0.40;0.30;;;6.40;99.90;;;;;;5093917;28;20191;-78
2021/11/24 04:25:17;;;;;;;0.40;0.40;;;6.40;99.90;;;;;;5092470;28;20599;-79
2021/11/24 04:27:44;;;;;;;1.52;1.48;;;6.50;99.90;;;;;;5092205;28;20578;-80
2021/11/24 04:30:13;;;;;;;0.40;0.40;;;6.50;99.90;;;;;;5095184;28;20203;-79
2021/11/24 04:32:40;;;;;;;0.82;0.82;;;6.60;99.90;;;;;;5096612;28;20205;-79
2021/11/24 04:35:07;;;;;;;0.40;0.40;;;6.60;99.90;;;;;;5108367;28;20844;-79
2021/11/24 04:37:34;;;;;;;0.40;0.40;;;6.60;99.90;;;;;;5108205;28;20223;-78
2021/11/24 04:40:03;;;;;;;0.40;0.30;;;6.50;99.90;;;;;;5095630;28;20824;-79
2021/11/24 04:42:30;;;;;;;0.40;0.40;;;6.50;99.90;;;;;;5095905;28;20201;-77
2021/11/24 04:44:57;;;;;;;2.65;2.45;;;6.50;99.90;;;;;;5095925;28;20207;-79
2021/11/24 04:47:24;;;;;;;0.40;0.30;;;6.50;99.90;;;;;;5096651;28;20540;-80
2021/11/24 04:49:50;;;;;;;0.40;0.40;;;6.60;99.90;;;;;;5095903;28;20197;-80
2021/11/24 04:52:17;;;;;;;0.40;0.40;;;6.60;99.90;;;;;;5096640;28;20194;-80
2021/11/24 04:54:44;;;;;;;0.40;0.40;;;6.60;99.90;;;;;;5095500;28;20221;-80
2021/11/24 04:57:12;;;;;;;0.40;0.40;;;6.50;99.90;;;;;;5095485;28;20202;-79
2021/11/24 04:59:40;;;;;;;0.40;0.40;;;6.50;99.90;;;;;;5095596;28;20561;-79
2021/11/24 05:02:07;;;;;;;0.40;0.30;;;6.50;99.90;;;;;;5095376;28;20227;-79
2021/11/24 05:04:34;;;;;;;0.40;0.40;;;6.50;99.90;;;;;;5094533;28;20636;-79
2021/11/24 05:07:01;;;;;;;0.40;0.30;;;6.50;99.90;;;;;;5094352;28;20204;-80
2021/11/24 05:09:28;;;;;;;0.40;0.40;;;6.50;99.90;;;;;;5094280;28;20201;-78
2021/11/24 05:11:54;;;;;;;0.40;0.40;;;6.50;99.90;;;;;;5095538;28;20196;-79
2021/11/24 05:14:26;;;;;;;0.40;0.30;;;6.40;99.90;;;;;;5095525;28;20595;-80
2021/11/24 05:16:53;;;;;;;0.40;0.38;;;6.50;99.90;;;;;;5095139;28;20238;-79
2021/11/24 05:19:21;;;;;;;0.40;0.30;;;6.50;99.90;;;;;;5094772;28;20198;-79
2021/11/24 05:21:51;;;;;;;0.40;0.40;;;6.50;99.90;;;;;;5094999;28;20711;-79
2021/11/24 05:24:19;;;;;;;0.40;0.40;;;6.50;99.90;;;;;;5094065;28;20220;-79
2021/11/24 05:26:46;;;;;;;0.65;0.65;;;6.50;99.90;;;;;;5094079;28;20205;-78
2021/11/24 05:29:13;;;;;;;0.40;0.40;;;6.50;99.90;;;;;;5093831;28;20202;-77
2021/11/24 05:31:41;;;;;;;0.40;0.40;;;6.50;99.90;;;;;;5093598;28;20195;-75
2021/11/24 05:34:08;;;;;;;0.40;0.40;;;6.60;99.90;;;;;;5098850;28;20684;-78
2021/11/24 05:36:36;;;;;;;0.40;0.40;;;6.60;99.90;;;;;;5113150;28;20558;-77
2021/11/24 05:39:06;;;;;;;0.40;0.30;;;6.60;99.90;;;;;;5099738;28;20205;-78
2021/11/24 05:41:38;;;;;;;0.40;0.30;;;6.50;99.90;;;;;;5093434;28;20574;-77
2021/11/24 05:44:16;;;;;;;0.40;0.40;;;6.50;99.90;;;;;;5093482;28;20209;-78
2021/11/24 05:46:47;;;;;;;0.40;0.30;;;6.50;99.90;;;;;;5093555;28;20208;-78
2021/11/24 05:49:15;;;;;;;0.40;0.40;;;6.50;99.90;;;;;;5093387;28;20201;-79
2021/11/24 05:51:41;;;;;;;4.82;4.63;;;6.60;99.90;;;;;;5093251;28;20563;-78
2021/11/24 05:54:08;;;;;;;0.40;0.38;;;6.50;99.90;;;;;;5093092;28;20559;-78
2021/11/24 05:56:38;;;;;;;0.60;0.60;;;6.60;99.90;;;;;;5093008;28;20655;-79
2021/11/24 05:59:05;;;;;;;1.98;1.98;;;6.50;99.90;;;;;;5092854;28;20221;-79
2021/11/24 06:01:32;;;;;;;0.40;0.40;;;6.50;99.90;;;;;;5093144;28;20190;-78
2021/11/24 06:04:00;;;;;;;0.40;0.40;;;6.50;99.90;;;;;;5092855;28;20237;-79
2021/11/24 06:06:27;;;;;;;0.40;0.40;;;6.50;99.90;;;;;;5093109;28;20199;-79
2021/11/24 06:08:53;;;;;;;0.40;0.30;;;6.40;99.90;;;;;;5092248;28;20630;-78
2021/11/24 06:11:20;;;;;;;0.40;0.30;;;6.40;99.90;;;;;;5093677;28;20205;-80
2021/11/24 06:13:48;;;;;;;0.40;0.40;;;6.50;99.90;;;;;;5094045;28;20216;-79
2021/11/24 06:16:15;;;;;;;0.40;0.40;;;6.40;99.90;;;;;;5093164;28;20216;-78
2021/11/24 06:18:43;;;;;;;1.20;1.20;;;6.40;99.90;;;;;;5093044;28;20277;-78
2021/11/24 06:21:11;;;;;;;0.50;0.40;;;6.50;99.90;;;;;;5092136;28;20558;-78
2021/11/24 06:23:40;;;;;;;0.40;0.32;;;6.50;99.90;;;;;;5092580;28;20215;-78
2021/11/24 06:26:08;;;;;;;0.40;0.40;;;6.50;99.90;;;;;;5093191;28;20193;-78
2021/11/24 06:28:36;;;;;;;0.40;0.40;;;6.50;99.90;;;;;;5093573;28;20609;-78
2021/11/24 06:31:03;;;;;;;2.97;2.78;;;6.50;99.90;;;;;;5093802;28;20664;-80
2021/11/24 06:33:30;;;;;;;3.33;3.15;;;6.60;99.90;;;;;;5095291;28;20242;-80
2021/11/24 06:35:57;;;;;;;1.50;1.42;;;6.50;99.90;;;;;;5110332;28;20199;-81
2021/11/24 06:38:25;;;;;;;0.40;0.30;;;6.50;99.90;;;;;;5094021;28;20199;-79
2021/11/24 06:40:51;;;;;;;2.05;1.95;;;6.50;99.90;;;;;;5093086;28;20203;-79
2021/11/24 06:43:18;;;;;;;0.40;0.30;;;6.60;99.90;;;;;;5092483;28;20218;-78
2021/11/24 06:45:46;;;;;;;0.40;0.40;;;6.60;99.90;;;;;;5093016;28;20611;-82
2021/11/24 06:48:13;;;;;;;3.53;1.88;;;6.60;99.90;;;;;;5105581;22;21659;-78
2021/11/24 06:50:40;;;;;;;0.60;0.60;;;6.60;99.90;;;;;;5085024;28;20222;-78
2021/11/24 06:53:06;;;;;;;0.40;0.30;;;6.50;99.90;;;;;;5093861;28;20653;-80
2021/11/24 06:55:36;;;;;;;0.40;0.40;;;6.60;99.90;;;;;;5094490;28;20192;-79
2021/11/24 06:58:03;;;;;;;0.40;0.40;;;6.60;99.90;;;;;;5098907;28;20220;-79
2021/11/24 07:00:30;;;;;;;1.50;1.40;;;6.60;99.90;;;;;;5114193;28;20561;-78
2021/11/24 07:02:57;;;;;;;0.40;0.40;;;6.70;99.90;;;;;;5112772;28;20565;-77
2021/11/24 07:05:24;;;;;;;0.40;0.30;;;6.70;99.90;;;;;;5112955;28;20677;-78
2021/11/24 07:07:50;;;;;;;0.40;0.40;;;6.70;99.90;;;;;;5113016;28;20220;-78
2021/11/24 07:10:17;;;;;;;0.40;0.40;;;6.60;99.90;;;;;;5112703;28;20640;-78
2021/11/24 07:12:45;;;;;;;0.50;0.50;;;6.70;99.90;;;;;;5112735;28;20189;-77
2021/11/24 07:15:12;;;;;;;3.60;3.40;;;6.70;99.90;;;;;;5112047;28;20190;-77
2021/11/24 07:17:39;;;;;;;0.40;0.38;;;6.80;99.90;;;;;;5112797;28;20200;-78
2021/11/24 07:20:06;;;;;;;1.40;1.30;;;6.80;99.90;;;;;;5112588;28;20218;-78
2021/11/24 07:22:33;;;;;;;0.50;0.40;;;6.80;99.90;;;;;;5113041;28;20195;-77
2021/11/24 07:25:00;;;;;;;0.60;0.60;;;6.80;99.90;;;;;;5112382;28;20234;-78
2021/11/24 07:27:27;;;;;;;0.40;0.32;;;6.80;99.90;;;;;;5112035;28;20194;-78
2021/11/24 07:29:56;;;;;;;0.40;0.40;;;6.80;99.90;;;;;;5112465;28;20213;-77
2021/11/24 07:32:23;;;;;;;0.80;0.80;;;6.80;99.90;;;;;;5113310;28;20199;-77
2021/11/24 07:34:49;;;;;;;2.40;2.20;;;6.80;99.90;;;;;;5112676;28;20561;-77
2021/11/24 07:37:16;;;;;;;0.40;0.30;;;6.80;99.90;;;;;;5112343;28;20246;-78
2021/11/24 07:39:44;;;;;;;0.50;0.50;;;6.80;99.90;;;;;;5112372;28;20217;-77
2021/11/24 07:42:11;;;;;;;0.40;0.30;;;6.90;99.90;;;;;;5112571;28;20211;-78
2021/11/24 07:44:37;;;;;;;0.40;0.40;;;6.90;99.90;;;;;;5112721;28;20216;-78
2021/11/24 07:47:06;;;;;;;0.40;0.40;;;6.90;99.90;;;;;;5112940;28;20203;-77
2021/11/24 07:49:33;;;;;;;0.40;0.40;;;6.90;99.90;;;;;;5111470;28;20295;-78
2021/11/24 07:52:00;;;;;;;0.40;0.35;;;6.90;99.90;;;;;;5112562;28;20586;-79
2021/11/24 07:54:27;;;;;;;2.60;2.50;;;6.90;99.90;;;;;;5112595;28;20204;-78
2021/11/24 07:56:54;;;;;;;0.40;0.40;;;7.00;99.90;;;;;;5112139;28;20200;-77
2021/11/24 07:59:20;;;;;;;0.40;0.40;;;7.00;99.90;;;;;;5112875;28;20216;-78
2021/11/24 08:01:48;;;;;;;0.75;0.75;;;7.00;99.90;;;;;;5111975;28;20646;-77
2021/11/24 08:04:17;;;;;;;0.40;0.40;;;7.10;99.90;;;;;;5114474;28;20276;-78
2021/11/24 08:06:44;;;;;;;5.53;3.33;;;7.00;99.90;;;;;;5120102;28;20200;-78
2021/11/24 08:09:12;;;;;;;0.40;0.40;;;7.00;99.90;;;;;;5116020;28;20251;-78
2021/11/24 08:11:39;;;;;;;0.40;0.40;;;7.10;99.90;;;;;;5115920;28;20199;-78
2021/11/24 08:14:06;;;;;;;0.40;0.40;;;7.10;99.90;;;;;;5115639;28;20198;-78
2021/11/24 08:16:33;;;;;;;0.40;0.30;;;7.10;99.90;;;;;;5116649;28;20195;-77
2021/11/24 08:19:00;;;;;;;0.40;0.40;;;7.00;99.90;;;;;;5115990;28;20297;-77
2021/11/24 08:21:31;;;;;;;0.40;0.40;;;6.90;99.90;;;;;;5116558;28;20198;-78
2021/11/24 08:23:58;;;;;;;0.40;0.30;;;7.00;99.90;;;;;;5116636;28;20201;-77
2021/11/24 08:26:24;;;;;;;0.40;0.30;;;7.00;99.90;;;;;;5116130;28;20210;-78
2021/11/24 08:28:51;;;;;;;0.40;0.40;;;7.10;99.90;;;;;;5115285;28;20242;-77
2021/11/24 08:31:18;;;;;;;0.40;0.30;;;7.20;99.90;;;;;;5116134;28;20200;-78
2021/11/24 08:33:46;;;;;;;0.50;0.40;;;7.10;99.90;;;;;;5120640;28;20262;-76
2021/11/24 08:36:15;;;;;;;0.40;0.40;;;7.00;99.90;;;;;;5116143;28;20321;-78
2021/11/24 08:38:46;;;;;;;0.40;0.40;;;6.90;99.90;;;;;;5115890;28;20215;-77
2021/11/24 08:41:16;;;;;;;0.40;0.30;;;7.00;99.90;;;;;;5117270;28;20251;-77
2021/11/24 08:43:44;;;;;;;0.40;0.30;;;7.00;99.90;;;;;;5120570;28;20633;-77
2021/11/24 08:46:12;;;;;;;2.13;1.95;;;7.10;99.90;;;;;;5120993;28;20308;-78
2021/11/24 08:48:39;;;;;;;0.40;0.38;;;7.20;99.90;;;;;;5119563;28;20224;-78
2021/11/24 08:51:07;;;;;;;0.40;0.40;;;7.30;99.90;;;;;;5120399;28;20191;-78
2021/11/24 08:53:34;;;;;;;0.40;0.40;;;7.30;99.90;;;;;;5117360;28;20295;-77
2021/11/24 08:56:02;;;;;;;0.40;0.30;;;7.40;99.90;;;;;;5115820;28;20620;-78
2021/11/24 08:58:29;;;;;;;0.40;0.40;;;7.50;99.90;;;;;;5114859;28;20218;-77
2021/11/24 09:00:55;;;;;;;0.40;0.38;;;7.50;99.90;;;;;;5115416;28;20190;-78
2021/11/24 09:03:22;;;;;;;0.40;0.40;;;7.50;99.90;;;;;;5115229;28;20203;-77
2021/11/24 09:05:50;;;;;;;0.50;0.30;;;7.50;99.90;;;;;;5115229;28;20284;-77
2021/11/24 09:08:17;;;;;;;0.40;0.40;;;7.50;99.90;;;;;;5114759;28;20711;-78
2021/11/24 09:10:44;;;;;;;0.40;0.40;;;7.50;99.90;;;;;;5114609;28;20203;-77
2021/11/24 09:13:12;;;;;;;0.40;0.40;;;7.60;99.90;;;;;;5114686;28;20612;-78
2021/11/24 09:15:40;;;;;;;0.50;0.40;;;7.60;99.90;;;;;;5114391;28;20193;-79
2021/11/24 09:18:07;;;;;;;0.47;0.40;;;7.70;99.90;;;;;;5114591;28;20218;-77
2021/11/24 09:20:34;;;;;;;0.50;0.40;;;7.80;99.90;;;;;;5114627;28;20211;-77
2021/11/24 09:23:01;;;;;;;0.50;0.40;;;7.90;99.90;;;;;;5115116;28;20672;-78
2021/11/24 09:25:36;;;;;;;2.25;1.58;;;8.00;99.90;;;;;;5114694;28;20557;-78
2021/11/24 09:28:08;;;;;;;0.70;0.70;;;8.00;99.90;;;;;;5116287;28;20224;-79
2021/11/24 09:30:36;;;;;;;0.50;0.40;;;8.10;99.90;;;;;;5115947;28;20180;-77
2021/11/24 09:33:03;;;;;;;1.67;1.58;;;8.20;99.90;;;;;;5116569;28;20199;-78
2021/11/24 09:35:31;;;;;;;0.50;0.40;;;8.30;99.90;;;;;;5115975;28;20678;-78
2021/11/24 09:37:58;;;;;;;0.40;0.40;;;8.40;99.90;;;;;;5116728;28;20215;-78
2021/11/24 09:40:25;;;;;;;0.40;0.40;;;8.40;99.90;;;;;;5115931;28;20254;-77
2021/11/24 09:42:57;;;;;;;0.50;0.40;;;8.50;99.90;;;;;;5117601;28;20200;-78
2021/11/24 09:45:23;;;;;;;0.50;0.38;;;8.60;99.90;;;;;;5117110;28;20222;-78
2021/11/24 09:47:55;;;;;;;0.57;0.40;;;8.70;99.90;;;;;;5116170;28;20203;-78
2021/11/24 09:50:25;;;;;;;0.50;0.40;;;8.80;99.90;;;;;;5116325;28;20181;-78
2021/11/24 09:52:54;;;;;;;0.50;0.40;;;8.80;99.90;;;;;;5113980;28;20210;-77
2021/11/24 09:55:21;;;;;;;5.07;4.80;;;8.90;99.90;;;;;;5114557;28;20382;-76
2021/11/24 09:57:49;;;;;;;0.50;0.40;;;8.90;99.90;;;;;;5113715;28;20200;-77
2021/11/24 10:00:16;;;;;;;0.40;0.40;;;9.00;99.90;;;;;;5113553;28;20207;-77
2021/11/24 10:02:44;;;;;;;0.40;0.32;;;9.00;99.90;;;;;;5113643;28;20189;-76
2021/11/24 10:05:12;;;;;;;0.50;0.40;;;9.00;99.90;;;;;;5113883;28;20212;-77
2021/11/24 10:07:42;;;;;;;0.50;0.40;;;9.00;99.90;;;;;;5113725;28;20196;-76
2021/11/24 10:10:10;;;;;;;0.50;0.40;;;9.10;99.90;;;;;;5113557;28;20196;-76
2021/11/24 10:12:36;;;;;;;0.50;0.40;;;9.10;99.90;;;;;;5113612;28;20196;-77
2021/11/24 10:15:05;;;;;;;0.50;0.40;;;9.10;99.90;;;;;;5113349;28;20188;-77
2021/11/24 10:17:31;;;;;;;0.50;0.40;;;9.20;99.90;;;;;;5113781;28;20618;-76
2021/11/24 10:19:59;;;;;;;0.50;0.40;;;9.10;99.90;;;;;;5112696;28;20234;-77
2021/11/24 10:22:29;;;;;;;0.50;0.40;;;9.10;99.90;;;;;;5113322;28;20724;-77
2021/11/24 10:25:05;;;;;;;0.50;0.40;;;9.20;99.90;;;;;;5113019;28;20200;-77
2021/11/24 10:27:42;;;;;;;0.50;0.35;;;9.30;99.90;;;;;;5112353;28;20678;-77
2021/11/24 10:30:09;;;;;;;0.50;0.40;;;9.20;99.90;;;;;;5112554;28;20190;-77
2021/11/24 10:32:37;;;;;;;0.50;0.40;;;9.40;99.90;;;;;;5113831;28;20204;-77
2021/11/24 10:35:05;;;;;;;0.50;0.40;;;9.50;99.90;;;;;;5113370;28;20202;-76
2021/11/24 10:37:33;;;;;;;0.50;0.50;;;9.70;99.90;;;;;;5113658;28;20203;-77
2021/11/24 10:40:02;;;;;;;0.50;0.38;;;9.70;99.90;;;;;;5112294;28;20220;-77
2021/11/24 10:42:32;;;;;;;0.50;0.40;;;9.70;99.90;;;;;;5113728;28;20323;-77
2021/11/24 10:45:01;;;;;;;0.50;0.40;;;9.70;99.90;;;;;;5113592;28;20576;-76
2021/11/24 10:47:28;;;;;;;0.50;0.40;;;9.90;99.90;;;;;;5112894;28;20193;-77
2021/11/24 10:49:57;;;;;;;0.50;0.40;;;10.00;99.90;;;;;;5112484;28;20224;-77
2021/11/24 10:52:27;;;;;;;0.50;0.40;;;9.90;99.90;;;;;;5112522;28;20192;-77
2021/11/24 10:55:01;;;;;;;0.50;0.40;;;10.00;99.90;;;;;;5112055;28;20702;-76
2021/11/24 10:57:29;;;;;;;0.50;0.40;;;10.10;99.90;;;;;;5112576;28;20192;-77
2021/11/24 11:00:03;;;;;;;1.90;0.83;;;10.30;99.90;;;;;;5112353;28;20223;-77
2021/11/24 11:02:33;;;;;;;0.50;0.40;;;10.50;99.90;;;;;;5112317;28;20463;-77
2021/11/24 11:05:09;;;;;;;0.50;0.40;;;10.40;99.90;;;;;;5112522;28;20664;-77
2021/11/24 11:07:38;;;;;;;0.50;0.40;;;10.40;99.90;;;;;;5112835;28;20614;-77
2021/11/24 11:10:13;;;;;;;0.50;0.40;;;10.50;99.90;;;;;;5112789;28;20438;-78
2021/11/24 11:12:41;;;;;;;0.50;0.40;;;10.60;99.90;;;;;;5112362;28;20173;-77
2021/11/24 11:15:13;;;;;;;0.95;0.95;;;10.30;99.90;;;;;;5112649;28;20547;-77
2021/11/24 11:18:03;;;;;;;0.50;0.40;;;10.50;99.90;;;;;;5113141;28;20200;-77
2021/11/24 11:20:32;;;;;;;0.50;0.40;;;10.70;99.90;;;;;;5112462;28;20247;-78
2021/11/24 11:23:07;;;;;;;0.50;0.40;;;10.90;99.90;;;;;;5112565;28;20489;-76
2021/11/24 11:25:37;;;;;;;0.50;0.40;;;11.10;99.90;;;;;;5112060;28;20232;-76
2021/11/24 11:28:05;;;;;;;0.50;0.30;;;11.30;99.90;;;;;;5112185;28;20460;-77
2021/11/24 11:30:33;;;;;;;0.50;0.40;;;11.60;99.90;;;;;;5112881;28;20437;-77
2021/11/24 11:33:00;;;;;;;0.50;0.40;;;11.80;99.90;;;;;;5111828;28;20438;-76
2021/11/24 11:35:27;;;;;;;0.50;0.40;;;11.70;99.90;;;;;;5112418;28;20434;-78
2021/11/24 11:37:55;;;;;;;0.87;0.40;;;11.40;99.90;;;;;;5114562;28;20434;-77
2021/11/24 11:40:22;;;;;;;0.50;0.40;;;11.30;99.90;;;;;;5116116;28;20431;-76
2021/11/24 11:42:51;;;;;;;0.50;0.40;;;11.40;99.90;;;;;;5116787;28;20311;-77
2021/11/24 11:45:19;;;;;;;0.73;0.73;;;11.50;99.90;;;;;;5116759;28;20443;-77
2021/11/24 11:47:52;;;;;;;0.50;0.40;;;11.60;99.90;;;;;;5116042;28;20438;-76
2021/11/24 11:50:48;;;;;;;0.50;0.40;;;11.60;99.90;;;;;;5115859;28;20437;-78
2021/11/24 11:53:18;;;;;;;0.50;0.40;;;11.50;99.90;;;;;;5112872;28;20792;-77
2021/11/24 11:55:45;;;;;;;0.50;0.40;;;11.50;99.90;;;;;;5115889;28;20438;-77
2021/11/24 11:58:24;;;;;;;0.50;0.40;;;11.40;99.90;;;;;;5116369;28;20967;-77
2021/11/24 12:01:05;;;;;;;0.50;0.40;;;11.30;99.90;;;;;;5115821;28;20436;-77
2021/11/24 12:03:54;;;;;;;0.50;0.40;;;11.30;99.90;;;;;;5116057;28;20430;-77
2021/11/24 12:06:24;;;;;;;1.80;1.70;;;11.20;99.90;;;;;;5117159;28;20457;-77
2021/11/24 12:09:21;;;;;;;0.50;0.40;;;11.10;99.90;;;;;;5115945;28;20470;-76
2021/11/24 12:12:19;;;;;;;0.50;0.40;;;10.80;99.90;;;;;;5116069;28;20434;-76
2021/11/24 12:14:54;;;;;;;0.50;0.40;;;10.60;99.90;;;;;;5072366;28;20202;-77
2021/11/24 12:17:47;;;;;;;0.50;0.40;;;10.50;99.90;;;;;;5108375;28;20195;-78
2021/11/24 12:20:48;;;;;;;0.50;0.40;;;10.40;99.90;;;;;;5115649;28;20283;-77
2021/11/24 12:23:24;;;;;;;0.50;0.40;;;10.20;99.90;;;;;;5116010;28;20180;-77
2021/11/24 12:25:55;;;;;;;0.63;0.63;;;10.10;99.90;;;;;;5115821;28;20470;-76
2021/11/24 12:28:24;;;;;;;0.50;0.40;;;10.00;99.90;;;;;;5115845;28;20454;-77
2021/11/24 12:31:07;;;;;;;0.50;0.40;;;9.90;99.90;;;;;;5115259;28;20442;-76
2021/11/24 12:33:39;;;;;;;1.30;1.02;;;9.80;99.90;;;;;;5115798;28;20187;-77
2021/11/24 12:36:11;;;;;;;0.50;0.40;;;9.80;99.90;;;;;;5115279;28;20184;-78
2021/11/24 12:38:40;;;;;;;0.50;0.40;;;9.70;99.90;;;;;;5115745;28;20230;-77
2021/11/24 12:41:09;;;;;;;0.50;0.40;;;9.70;99.90;;;;;;5114958;28;20200;-76
2021/11/24 12:43:39;;;;;;;1.15;1.15;;;9.60;99.90;;;;;;5117435;28;20672;-76
2021/11/24 12:46:11;;;;;;;0.60;0.60;;;9.50;99.90;;;;;;5115368;28;20212;-77
2021/11/24 12:48:43;;;;;;;0.50;0.45;;;9.40;99.90;;;;;;5115738;28;20220;-76
2021/11/24 12:51:12;;;;;;;0.50;0.40;;;9.40;99.90;;;;;;5115291;28;20208;-77
2021/11/24 12:53:39;;;;;;;0.50;0.50;;;9.30;99.90;;;;;;5115050;28;20200;-75
2021/11/24 12:56:09;;;;;;;0.50;0.40;;;9.30;99.90;;;;;;5115170;28;20662;-76
2021/11/24 12:58:36;;;;;;;0.50;0.50;;;9.20;99.90;;;;;;5114681;28;20310;-77
2021/11/24 13:01:24;;;;;;;0.50;0.40;;;9.20;99.90;;;;;;5114570;28;20196;-76
2021/11/24 13:04:00;;;;;;;0.50;0.50;;;9.10;99.90;;;;;;5114673;28;20173;-76